createdAt,value
2019-03-05T00:01:59.117Z,4.24
2019-03-05T00:04:29.536Z,4.16
2019-03-05T00:06:59.874Z,4.36
2019-03-05T00:09:30.191Z,4.28
2019-03-05T00:12:00.369Z,4.21
2019-03-05T00:14:30.603Z,4.21
2019-03-05T00:17:00.977Z,4.26
2019-03-05T00:19:31.240Z,4.29
2019-03-05T00:22:01.618Z,4.24
2019-03-05T00:25:01.590Z,4.15
2019-03-05T00:27:45.766Z,4.20
2019-03-05T00:31:02.673Z,4.31
2019-03-05T00:34:09.091Z,4.27
2019-03-05T00:37:19.924Z,4.21
2019-03-05T00:40:35.745Z,4.03
2019-03-05T00:43:36.711Z,4.26
2019-03-05T00:47:06.056Z,4.23
2019-03-05T00:50:16.122Z,4.17
2019-03-05T00:53:07.834Z,3.92
2019-03-05T00:56:09.826Z,3.90
2019-03-05T00:59:17.011Z,3.95
2019-03-05T01:02:37.985Z,4.07
2019-03-05T01:05:55.743Z,4.08
2019-03-05T01:08:26.715Z,3.87
2019-03-05T01:10:57.265Z,4.02
2019-03-05T01:13:27.637Z,4.04
2019-03-05T01:15:58.043Z,3.98
2019-03-05T01:18:28.287Z,4.09
2019-03-05T01:20:58.601Z,4.16
2019-03-05T01:23:28.919Z,4.24
2019-03-05T01:25:59.364Z,4.12
2019-03-05T01:28:29.870Z,4.17
2019-03-05T01:31:19.798Z,4.20
2019-03-05T01:33:54.871Z,4.10
2019-03-05T01:36:26.917Z,4.02
2019-03-05T01:39:03.898Z,3.91
2019-03-05T01:41:34.292Z,3.82
2019-03-05T01:44:04.656Z,3.81
2019-03-05T01:46:34.887Z,3.76
2019-03-05T01:49:05.345Z,3.81
2019-03-05T01:51:35.518Z,3.93
2019-03-05T01:54:05.872Z,3.94
2019-03-05T01:56:36.190Z,3.87
2019-03-05T01:59:06.615Z,3.91
2019-03-05T02:01:37.034Z,3.78
2019-03-05T02:04:07.462Z,3.89
2019-03-05T02:06:37.840Z,3.93
2019-03-05T02:09:10.100Z,4.01
2019-03-05T02:11:40.408Z,3.95
2019-03-05T02:14:10.786Z,3.97
2019-03-05T02:16:41.125Z,3.95
2019-03-05T02:19:47.137Z,4.21
2019-03-05T02:22:46.838Z,4.29
2019-03-05T02:25:42.233Z,4.49
2019-03-05T02:28:59.552Z,4.55
2019-03-05T02:32:20.289Z,4.52
2019-03-05T02:35:55.300Z,4.45
2019-03-05T02:39:24.853Z,4.36
2019-03-05T02:42:56.090Z,4.32
2019-03-05T02:45:43.361Z,4.23
2019-03-05T02:49:10.963Z,4.22
2019-03-05T02:52:31.583Z,4.15
2019-03-05T02:55:48.988Z,4.09
2019-03-05T02:58:17.060Z,4.13
2019-03-05T03:01:05.202Z,4.05
2019-03-05T03:03:42.159Z,4.06
2019-03-05T03:06:18.850Z,4.03
2019-03-05T03:08:49.179Z,4.06
2019-03-05T03:11:19.522Z,4.01
2019-03-05T03:13:49.911Z,4.01
2019-03-05T03:16:20.282Z,4.01
2019-03-05T03:18:50.660Z,4.03
2019-03-05T03:21:21.009Z,4.03
2019-03-05T03:23:51.415Z,4.09
2019-03-05T03:26:21.846Z,4.19
2019-03-05T03:28:52.218Z,4.20
2019-03-05T03:31:22.550Z,4.36
2019-03-05T03:33:53.049Z,4.43
2019-03-05T03:36:23.496Z,4.52
2019-03-05T03:38:53.840Z,4.41
2019-03-05T03:41:24.214Z,4.39
2019-03-05T03:43:54.647Z,4.52
2019-03-05T03:46:25.091Z,4.54
2019-03-05T03:48:55.481Z,4.48
2019-03-05T03:51:25.916Z,4.40
2019-03-05T03:53:56.456Z,4.26
2019-03-05T03:56:26.789Z,4.16
2019-03-05T03:58:57.213Z,4.17
2019-03-05T04:01:27.591Z,4.08
2019-03-05T04:03:57.991Z,4.11
2019-03-05T04:06:28.610Z,4.07
2019-03-05T04:08:59.124Z,3.97
2019-03-05T04:11:29.517Z,3.95
2019-03-05T04:13:59.955Z,3.94
2019-03-05T04:16:30.413Z,3.91
2019-03-05T04:19:02.456Z,3.93
2019-03-05T04:21:32.883Z,3.93
2019-03-05T04:24:03.114Z,3.97
2019-03-05T04:26:33.521Z,4.10
2019-03-05T04:29:03.948Z,4.06
2019-03-05T04:31:34.879Z,3.95
2019-03-05T04:34:05.265Z,3.91
2019-03-05T04:36:35.549Z,3.91
2019-03-05T04:39:11.402Z,3.89
2019-03-05T04:41:41.788Z,3.93
2019-03-05T04:44:13.545Z,3.87
2019-03-05T04:46:50.428Z,3.86
2019-03-05T04:49:32.832Z,3.86
2019-03-05T04:52:05.897Z,3.85
2019-03-05T04:54:36.242Z,3.82
2019-03-05T04:57:06.548Z,3.88
2019-03-05T04:59:37.019Z,3.91
2019-03-05T05:02:07.408Z,3.85
2019-03-05T05:04:37.829Z,3.86
2019-03-05T05:07:08.161Z,3.85
2019-03-05T05:09:38.494Z,3.82
2019-03-05T05:12:08.871Z,3.79
2019-03-05T05:14:39.353Z,3.67
2019-03-05T05:17:09.780Z,3.61
2019-03-05T05:19:39.915Z,3.54
2019-03-05T05:22:10.284Z,3.47
2019-03-05T05:24:40.768Z,3.58
2019-03-05T05:27:11.534Z,3.56
2019-03-05T05:29:41.789Z,3.62
2019-03-05T05:32:12.116Z,3.59
2019-03-05T05:34:42.392Z,3.58
2019-03-05T05:37:12.801Z,3.60
2019-03-05T05:40:21.877Z,3.79
2019-03-05T05:42:52.722Z,3.73
2019-03-05T05:45:25.085Z,3.67
2019-03-05T05:47:55.510Z,3.65
2019-03-05T05:50:25.981Z,3.74
2019-03-05T05:52:56.271Z,3.76
2019-03-05T05:55:26.744Z,3.76
2019-03-05T05:57:57.177Z,3.81
2019-03-05T06:00:27.653Z,3.89
2019-03-05T06:02:58.040Z,3.86
2019-03-05T06:05:28.559Z,3.82
2019-03-05T06:07:58.989Z,3.79
2019-03-05T06:10:29.375Z,4.51
2019-03-05T06:12:59.855Z,4.09
2019-03-05T06:15:30.302Z,3.94
2019-03-05T06:18:19.790Z,4.04
2019-03-05T06:20:50.200Z,4.14
2019-03-05T06:23:20.573Z,4.17
2019-03-05T06:25:50.949Z,4.16
2019-03-05T06:28:21.232Z,4.26
2019-03-05T06:30:51.362Z,4.27
2019-03-05T06:33:21.795Z,4.45
2019-03-05T06:35:52.198Z,6.10
2019-03-05T06:38:22.442Z,4.72
2019-03-05T06:40:52.847Z,4.61
2019-03-05T06:43:23.145Z,4.66
2019-03-05T06:45:53.452Z,4.75
2019-03-05T06:48:23.766Z,4.94
2019-03-05T06:50:54.083Z,5.01
2019-03-05T06:53:24.445Z,5.02
2019-03-05T06:55:54.758Z,4.98
2019-03-05T06:58:24.984Z,5.04
2019-03-05T07:00:55.292Z,5.08
2019-03-05T07:03:25.505Z,5.10
2019-03-05T07:06:48.082Z,5.16
2019-03-05T07:09:52.460Z,5.19
2019-03-05T07:13:01.767Z,5.16
2019-03-05T07:15:58.783Z,5.13
2019-03-05T07:18:46.890Z,5.11
2019-03-05T07:22:12.555Z,5.10
2019-03-05T07:24:52.524Z,5.03
2019-03-05T07:27:29.949Z,5.05
2019-03-05T07:30:22.724Z,5.14
2019-03-05T07:32:53.781Z,5.26
2019-03-05T07:35:26.498Z,5.38
2019-03-05T07:37:56.917Z,5.49
2019-03-05T07:40:27.246Z,5.68
2019-03-05T07:42:57.585Z,5.70
2019-03-05T07:45:28.056Z,5.86
2019-03-05T07:47:58.444Z,5.73
2019-03-05T07:50:28.738Z,5.89
2019-03-05T07:52:59.062Z,5.85
2019-03-05T07:55:29.357Z,5.94
2019-03-05T07:57:59.575Z,5.95
2019-03-05T08:00:29.790Z,6.00
2019-03-05T08:03:00.062Z,6.11
2019-03-05T08:05:30.348Z,6.14
2019-03-05T08:08:56.282Z,6.38
2019-03-05T08:11:26.609Z,6.50
2019-03-05T08:14:49.374Z,6.56
2019-03-05T08:17:19.897Z,6.67
2019-03-05T08:19:50.262Z,6.99
2019-03-05T08:22:20.785Z,7.31
2019-03-05T08:24:51.171Z,7.15
2019-03-05T08:27:21.618Z,7.14
2019-03-05T08:29:51.946Z,7.17
2019-03-05T08:32:22.331Z,7.11
2019-03-05T08:34:52.636Z,7.18
2019-03-05T08:37:23.029Z,7.41
2019-03-05T08:39:53.410Z,7.61
2019-03-05T08:42:23.749Z,7.47
2019-03-05T08:44:53.884Z,7.63
2019-03-05T08:47:24.132Z,7.47
2019-03-05T08:49:54.302Z,7.64
2019-03-05T08:52:24.644Z,7.68
2019-03-05T08:54:54.786Z,7.77
2019-03-05T08:57:25.007Z,7.90
2019-03-05T08:59:55.319Z,7.83
2019-03-05T09:02:25.646Z,7.81
2019-03-05T09:04:55.898Z,7.95
2019-03-05T09:07:26.260Z,8.04
2019-03-05T09:09:56.464Z,7.84
2019-03-05T09:12:26.796Z,8.06
2019-03-05T09:14:57.011Z,7.87
2019-03-05T09:17:27.266Z,8.08
2019-03-05T09:19:57.677Z,8.18
2019-03-05T09:22:27.846Z,8.31
2019-03-05T09:24:58.187Z,8.38
2019-03-05T09:27:28.534Z,8.47
2019-03-05T09:29:58.875Z,8.81
2019-03-05T09:32:29.097Z,8.52
2019-03-05T09:34:59.352Z,8.51
2019-03-05T09:37:29.725Z,8.36
2019-03-05T09:40:00.346Z,8.32
2019-03-05T09:42:39.491Z,8.49
2019-03-05T09:45:02.719Z,8.36
2019-03-05T09:47:33.130Z,8.66
2019-03-05T09:50:03.531Z,8.45
2019-03-05T09:52:33.742Z,8.81
2019-03-05T09:55:04.875Z,9.00
2019-03-05T09:57:35.114Z,8.95
2019-03-05T10:00:06.692Z,8.91
2019-03-05T10:02:36.912Z,8.81
2019-03-05T10:05:08.354Z,8.81
2019-03-05T10:07:38.842Z,9.43
2019-03-05T10:10:12.020Z,8.99
2019-03-05T10:12:42.539Z,9.02
2019-03-05T10:15:16.795Z,9.15
2019-03-05T10:17:49.791Z,8.95
2019-03-05T10:20:21.475Z,9.04
2019-03-05T10:22:52.242Z,9.30
2019-03-05T10:25:24.362Z,9.13
2019-03-05T10:27:54.920Z,9.23
2019-03-05T10:30:27.689Z,9.51
2019-03-05T10:32:59.755Z,9.41
2019-03-05T10:35:30.469Z,9.46
2019-03-05T10:38:02.381Z,9.87
2019-03-05T10:40:36.061Z,9.98
2019-03-05T10:43:09.212Z,9.87
2019-03-05T10:45:43.260Z,9.89
2019-03-05T10:48:14.994Z,10.03
2019-03-05T10:50:45.405Z,10.04
2019-03-05T10:53:15.754Z,9.95
2019-03-05T10:55:46.264Z,10.29
2019-03-05T10:58:18.675Z,10.01
2019-03-05T11:00:49.200Z,10.43
2019-03-05T11:03:20.254Z,10.73
2019-03-05T11:05:51.201Z,10.11
2019-03-05T11:08:23.696Z,10.23
2019-03-05T11:10:54.911Z,10.42
2019-03-05T11:13:25.508Z,10.09
2019-03-05T11:15:57.598Z,10.33
2019-03-05T11:18:29.664Z,10.35
2019-03-05T11:21:00.105Z,10.02
2019-03-05T11:23:30.571Z,10.21
2019-03-05T11:26:00.903Z,10.23
2019-03-05T11:28:31.124Z,10.13
2019-03-05T11:31:01.517Z,10.12
2019-03-05T11:33:31.868Z,10.02
2019-03-05T11:36:02.267Z,9.99
2019-03-05T11:38:32.678Z,10.02
2019-03-05T11:41:03.381Z,10.11
2019-03-05T11:43:33.760Z,10.39
2019-03-05T11:46:05.618Z,10.17
2019-03-05T11:48:36.005Z,10.17
2019-03-05T11:51:06.539Z,10.24
2019-03-05T11:53:36.950Z,10.13
2019-03-05T11:56:08.614Z,10.05
2019-03-05T11:58:38.963Z,10.23
2019-03-05T12:01:13.840Z,9.94
2019-03-05T12:03:44.256Z,9.83
2019-03-05T12:06:14.652Z,9.64
2019-03-05T12:08:44.995Z,9.60
2019-03-05T12:11:15.388Z,9.54
2019-03-05T12:13:45.678Z,9.93
2019-03-05T12:16:16.631Z,9.83
2019-03-05T12:18:47.106Z,9.86
2019-03-05T12:21:17.516Z,10.13
2019-03-05T12:23:48.376Z,9.73
2019-03-05T12:26:18.871Z,10.02
2019-03-05T12:28:49.214Z,9.96
2019-03-05T12:31:19.628Z,10.25
2019-03-05T12:33:49.910Z,9.92
2019-03-05T12:36:20.335Z,10.07
2019-03-05T12:38:50.670Z,9.85
2019-03-05T12:41:21.089Z,9.77
2019-03-05T12:43:51.391Z,9.87
2019-03-05T12:46:21.716Z,9.64
2019-03-05T12:48:52.091Z,9.66
2019-03-05T12:51:22.487Z,9.40
2019-03-05T12:53:52.822Z,9.44
2019-03-05T12:56:24.327Z,9.44
2019-03-05T12:58:54.953Z,9.37
2019-03-05T13:01:25.306Z,9.20
2019-03-05T13:03:55.558Z,9.39
2019-03-05T13:06:25.992Z,9.19
2019-03-05T13:08:56.175Z,9.38
2019-03-05T13:11:26.493Z,9.03
2019-03-05T13:14:06.135Z,9.16
2019-03-05T13:16:28.979Z,8.89
2019-03-05T13:18:59.327Z,8.99
2019-03-05T13:21:29.608Z,8.87
2019-03-05T13:23:59.941Z,8.93
2019-03-05T13:26:30.267Z,8.64
2019-03-05T13:29:00.508Z,8.82
2019-03-05T13:31:31.016Z,8.44
2019-03-05T13:34:01.267Z,8.58
2019-03-05T13:36:31.590Z,8.54
2019-03-05T13:39:01.894Z,8.64
2019-03-05T13:41:32.190Z,8.35
2019-03-05T13:44:02.501Z,8.27
2019-03-05T13:46:32.822Z,8.03
2019-03-05T13:49:47.635Z,7.76
2019-03-05T13:53:23.968Z,7.68
2019-03-05T13:56:48.668Z,7.59
2019-03-05T14:00:03.576Z,7.40
2019-03-05T14:03:04.871Z,7.49
2019-03-05T14:06:50.011Z,7.40
2019-03-05T14:09:19.807Z,7.43
2019-03-05T14:11:53.992Z,7.26
2019-03-05T14:14:29.576Z,7.23
2019-03-05T14:17:07.874Z,7.02
2019-03-05T14:19:38.230Z,7.07
2019-03-05T14:22:08.650Z,7.05
2019-03-05T14:24:38.980Z,7.08
2019-03-05T14:27:09.276Z,7.16
2019-03-05T14:29:39.791Z,7.13
2019-03-05T14:32:11.851Z,6.99
2019-03-05T14:34:43.871Z,6.98
2019-03-05T14:37:14.375Z,7.03
2019-03-05T14:39:44.843Z,7.03
2019-03-05T14:42:15.393Z,7.00
2019-03-05T14:44:45.781Z,6.73
2019-03-05T14:47:16.268Z,6.73
2019-03-05T14:49:46.551Z,6.70
2019-03-05T14:52:16.858Z,6.69
2019-03-05T14:54:47.196Z,6.65
2019-03-05T14:57:17.490Z,6.73
2019-03-05T14:59:47.955Z,6.71
2019-03-05T15:02:18.218Z,6.66
2019-03-05T15:04:48.592Z,6.60
2019-03-05T15:07:18.917Z,6.57
2019-03-05T15:09:49.250Z,6.73
2019-03-05T15:12:19.461Z,6.62
2019-03-05T15:14:49.737Z,6.60
2019-03-05T15:17:19.976Z,6.45
2019-03-05T15:19:50.240Z,6.47
2019-03-05T15:22:20.412Z,6.40
2019-03-05T15:24:50.881Z,6.35
2019-03-05T15:27:21.210Z,6.31
2019-03-05T15:29:51.563Z,6.22
2019-03-05T15:32:21.828Z,6.17
2019-03-05T15:34:52.112Z,6.14
2019-03-05T15:37:22.659Z,6.10
2019-03-05T15:39:53.061Z,6.07
2019-03-05T15:42:23.303Z,6.03
2019-03-05T15:44:53.576Z,6.02
2019-03-05T15:47:24.038Z,6.00
2019-03-05T15:49:54.374Z,5.94
2019-03-05T15:52:24.850Z,5.90
2019-03-05T15:54:55.009Z,5.92
2019-03-05T15:57:26.380Z,5.89
2019-03-05T15:59:56.742Z,5.86
2019-03-05T16:02:27.077Z,5.85
2019-03-05T16:04:57.354Z,5.88
2019-03-05T16:07:27.591Z,5.76
2019-03-05T16:09:57.940Z,5.69
2019-03-05T16:12:28.273Z,5.63
2019-03-05T16:14:58.587Z,5.56
2019-03-05T16:17:29.717Z,5.56
2019-03-05T16:20:00.174Z,5.54
2019-03-05T16:22:30.600Z,5.51
2019-03-05T16:25:00.821Z,5.45
2019-03-05T16:27:31.519Z,5.46
2019-03-05T16:30:01.746Z,5.39
2019-03-05T16:32:40.957Z,5.43
2019-03-05T16:35:31.435Z,5.28
2019-03-05T16:38:10.426Z,5.18
2019-03-05T16:40:50.973Z,5.27
2019-03-05T16:43:37.723Z,5.31
2019-03-05T16:46:25.462Z,5.41
2019-03-05T16:49:30.243Z,5.32
2019-03-05T16:52:19.545Z,5.25
2019-03-05T16:54:56.287Z,5.31
2019-03-05T16:57:45.541Z,5.28
2019-03-05T17:00:48.783Z,5.26
2019-03-05T17:03:44.004Z,5.25
2019-03-05T17:06:29.310Z,5.34
2019-03-05T17:09:21.252Z,5.34
2019-03-05T17:11:54.913Z,5.35
2019-03-05T17:14:25.746Z,5.43
2019-03-05T17:16:56.047Z,5.40
2019-03-05T17:19:26.447Z,5.41
2019-03-05T17:21:56.917Z,5.39
2019-03-05T17:24:27.518Z,5.40
2019-03-05T17:26:57.869Z,5.40
2019-03-05T17:29:28.327Z,5.36
2019-03-05T17:31:59.582Z,5.22
2019-03-05T17:34:30.022Z,5.36
2019-03-05T17:37:00.513Z,5.41
2019-03-05T17:39:31.436Z,5.48
2019-03-05T17:42:01.885Z,5.45
2019-03-05T17:44:32.443Z,5.24
2019-03-05T17:47:02.848Z,5.36
2019-03-05T17:49:33.092Z,5.45
2019-03-05T17:52:03.324Z,5.43
2019-03-05T17:54:33.692Z,5.43
2019-03-05T17:57:04.078Z,5.41
2019-03-05T17:59:34.493Z,5.41
2019-03-05T18:02:04.965Z,5.39
2019-03-05T18:04:35.242Z,5.40
2019-03-05T18:07:05.693Z,5.49
2019-03-05T18:09:36.032Z,5.46
2019-03-05T18:12:06.507Z,5.47
2019-03-05T18:14:37.008Z,5.48
2019-03-05T18:17:07.526Z,5.48
2019-03-05T18:19:37.911Z,5.48
2019-03-05T18:22:08.252Z,5.59
2019-03-05T18:24:38.589Z,5.52
2019-03-05T18:27:08.933Z,5.52
2019-03-05T18:29:39.267Z,5.51
2019-03-05T18:32:09.598Z,5.51
2019-03-05T18:34:39.980Z,5.51
2019-03-05T18:37:10.281Z,5.52
2019-03-05T18:39:40.769Z,5.53
2019-03-05T18:42:11.243Z,5.47
2019-03-05T18:44:41.490Z,5.49
2019-03-05T18:47:11.847Z,5.47
2019-03-05T18:49:42.275Z,5.42
2019-03-05T18:52:12.722Z,5.40
2019-03-05T18:54:43.048Z,5.49
2019-03-05T18:57:13.566Z,5.42
2019-03-05T18:59:43.925Z,5.49
2019-03-05T19:02:14.724Z,5.48
2019-03-05T19:04:45.126Z,5.56
2019-03-05T19:07:15.550Z,5.50
2019-03-05T19:09:45.951Z,5.49
2019-03-05T19:12:16.474Z,5.47
2019-03-05T19:14:46.881Z,5.47
2019-03-05T19:17:17.226Z,5.44
2019-03-05T19:19:47.528Z,5.48
2019-03-05T19:25:25.795Z,5.44
2019-03-05T19:27:56.323Z,5.42
2019-03-05T19:30:32.689Z,5.34
2019-03-05T19:33:03.135Z,5.28
2019-03-05T19:35:33.398Z,5.23
2019-03-05T19:38:03.810Z,5.20
2019-03-05T19:40:35.713Z,5.16
2019-03-05T19:43:06.359Z,5.08
2019-03-05T19:45:39.916Z,5.07
2019-03-05T19:48:10.390Z,5.10
2019-03-05T19:50:40.780Z,5.08
2019-03-05T19:53:11.192Z,5.13
2019-03-05T19:55:41.622Z,5.11
2019-03-05T19:58:12.798Z,5.06
2019-03-05T20:01:04.179Z,5.02
2019-03-05T20:03:34.529Z,5.08
2019-03-05T20:06:05.031Z,5.14
2019-03-05T20:08:40.002Z,5.02
2019-03-05T20:11:07.969Z,5.07
2019-03-05T20:13:38.919Z,5.07
2019-03-05T20:16:10.516Z,5.09
2019-03-05T20:18:41.105Z,5.06
2019-03-05T20:21:11.785Z,5.06
2019-03-05T20:23:42.204Z,5.13
2019-03-05T20:26:12.793Z,5.14
2019-03-05T20:28:43.174Z,5.11
2019-03-05T20:31:13.802Z,5.08
2019-03-05T20:33:44.053Z,5.16
2019-03-05T20:36:14.321Z,5.10
2019-03-05T20:38:44.620Z,5.18
2019-03-05T20:41:14.877Z,5.15
2019-03-05T20:43:45.400Z,5.09
2019-03-05T20:46:23.842Z,5.11
2019-03-05T20:48:54.253Z,5.13
2019-03-05T20:51:25.296Z,5.12
2019-03-05T20:53:55.973Z,5.13
2019-03-05T20:56:26.434Z,5.11
2019-03-05T20:58:56.838Z,5.17
2019-03-05T21:03:39.294Z,5.28
2019-03-05T21:06:09.681Z,5.28
2019-03-05T21:08:41.470Z,5.24
2019-03-05T21:11:11.798Z,5.31
2019-03-05T21:13:42.191Z,5.28
2019-03-05T21:16:12.505Z,5.30
2019-03-05T21:18:42.669Z,5.38
2019-03-05T21:21:13.023Z,5.36
2019-03-05T21:23:43.442Z,5.34
2019-03-05T21:26:13.866Z,5.32
2019-03-05T21:28:44.198Z,5.37
2019-03-05T21:31:14.587Z,5.39
2019-03-05T21:33:44.943Z,5.42
2019-03-05T21:36:15.251Z,5.45
2019-03-05T21:38:45.557Z,5.48
2019-03-05T21:41:15.920Z,5.50
2019-03-05T21:43:46.333Z,5.48
2019-03-05T21:46:18.740Z,5.45
2019-03-05T21:48:49.086Z,5.36
2019-03-05T21:51:19.490Z,5.41
2019-03-05T21:53:49.903Z,5.49
2019-03-05T21:56:20.345Z,5.50
2019-03-05T21:58:50.663Z,5.57
2019-03-05T22:01:20.954Z,5.57
2019-03-05T22:03:51.540Z,5.57
2019-03-05T22:06:21.779Z,5.62
2019-03-05T22:08:52.215Z,5.63
2019-03-05T22:11:22.619Z,5.65
2019-03-05T22:13:52.937Z,5.68
2019-03-05T22:16:23.106Z,5.67
2019-03-05T22:18:53.515Z,5.70
2019-03-05T22:21:23.918Z,5.65
2019-03-05T22:23:54.301Z,5.66
2019-03-05T22:26:24.940Z,5.57
2019-03-05T22:28:55.126Z,5.55
2019-03-05T22:31:26.911Z,5.49
2019-03-05T22:33:57.447Z,5.53
2019-03-05T22:36:27.719Z,5.52
2019-03-05T22:38:57.951Z,5.57
2019-03-05T22:41:28.429Z,5.61
2019-03-05T22:43:58.683Z,5.69
2019-03-05T22:46:30.430Z,5.73
2019-03-05T22:49:00.835Z,5.84
2019-03-05T22:51:31.070Z,5.77
2019-03-05T22:54:02.372Z,5.84
2019-03-05T22:56:32.681Z,5.95
2019-03-05T22:59:02.888Z,5.89
2019-03-05T23:01:43.522Z,6.00
2019-03-05T23:04:19.026Z,5.99
2019-03-05T23:06:49.607Z,5.98
2019-03-05T23:09:26.210Z,5.97
2019-03-05T23:11:56.724Z,5.77
2019-03-05T23:14:27.297Z,5.77
2019-03-05T23:16:57.710Z,5.75
2019-03-05T23:19:29.157Z,5.80
2019-03-05T23:21:59.602Z,5.72
2019-03-05T23:24:30.407Z,5.66
2019-03-05T23:27:00.850Z,5.46
2019-03-05T23:29:39.978Z,5.53
2019-03-05T23:32:10.295Z,5.52
2019-03-05T23:34:42.494Z,5.40
2019-03-05T23:37:12.869Z,5.36
2019-03-05T23:39:43.614Z,5.29
2019-03-05T23:42:14.136Z,5.20
2019-03-05T23:44:44.552Z,5.08
2019-03-05T23:47:14.859Z,5.01
2019-03-05T23:49:45.215Z,5.00
2019-03-05T23:52:15.649Z,4.92
2019-03-05T23:54:45.919Z,4.84
2019-03-05T23:57:16.412Z,4.83
2019-03-05T23:59:46.827Z,4.77
